Del Norte, CO

6:04 PM MDT on October 01, 2014 (GMT -0600)
North West of | Change Station
CLOSE
Current Station
Personal Weather Station
Location: MONTE VISTA, CO
Elevation: 7720 ft
Nearby Weather Stations

Elev 7720 ft 37.65 °N, 106.18 °W | Updated 11 seconds ago

Overcast
Overcast
50.9 °F
Feels Like 50.9 °F
N
9.0
Wind Variable Wind from WNW
Gusts 13.0 mph

Today
High -- | Low -- °F
--% Chance of Precip.
Yesterday
High -- | Low -- °F
Precip. -- in
7:01 AM 6:48 PM
First Quarter, 52% visible
Pressure 29.93 in
Visibility 10.0 miles
Clouds Scattered Clouds 8000 ft
Overcast 9500 ft
Dew Point 37 °F
Humidity 58%
Rainfall 0.00 in
Snow Depth 0 in , 0 in , 1 in
UV 0 out of 12
Pollen 4.40 out of 12
Air Quality Not available.
Flu Activity Not available.
METAR KALS 012352Z AUTO 04006KT 10SM SCT080 OVC095 11/03 A3002 RMK AO2 RAE49 SLP133 P0000 60000 T01110028 10183 20100 53021

More Conditions Fewer Conditions

Pressure 29.93 in
Visibility 10.0 miles
Clouds Scattered Clouds 8000 ft
Overcast 9500 ft
Dew Point 37 °F
Humidity 58%
Rainfall 0.00 in
Snow Depth 0 in , 0 in , 1 in
UV 0 out of 12
Pollen 4.40 out of 12
Air Quality Not available.
Flu Activity Not available.
METAR KALS 012352Z AUTO 04006KT 10SM SCT080 OVC095 11/03 A3002 RMK AO2 RAE49 SLP133 P0000 60000 T01110028 10183 20100 53021

More Conditions Fewer Conditions

10-Day Weather Forecast

Almanac

Astronomy

Oct. 01, 2014 Rise Set
Actual Time 7:01 AM MDT 6:48 PM MDT
Civil Twilight 6:35 AM MDT 7:14 PM MDT
Nautical Twilight 6:04 AM MDT 7:45 PM MDT
Astronomical Twilight 5:34 AM MDT 8:15 PM MDT
Moon 1:59 PM MDT (10/1) No Moon Set
Length of Visible Light 12h 39m
Length of Day
11h 47m
Tomorrow will be 2m 24s shorter.
First Quarter, 52% of the Moon is Illuminated
Today
First Quarter
Oct 8
Full
Oct 15
Last Quarter
Oct 23
New
Oct 30
First Quarter

Today's Extremes

State Highs State Lows

Community

WunderPhotos

Upload Photos

1,758,094 photos uploaded!

WunderBlogs® & News

Nearby

Snow Depth

Station Depth Elevation
Medano Pass 0 in 9620 ft
Ivanhoe 0 in 10400 ft
Niwot 1 in 9910 ft
Lone Cone 5 in 9600 ft
Trapper Lake 0 in 9700 ft

Earthquake Activity

City Distance Mag. Time & Date
Trinidad, Colorado 89 miles 2.9 3:55 AM MDT
2014-09-30
Minimum magnitude displayed is 2.5.

Coastal Water Temperatures

Place Temperature
No Stations Reporting

Nearby Weather Stations